sensor_id;sensor_type;location;lat;lon;timestamp;pressure;altitude;pressure_sealevel;temperature;humidity
43430;BME280;29028;43.234;27.896;2022-07-23T04:02:59;100089.09;;;24.73;46.99
43430;BME280;29028;43.234;27.896;2022-07-23T04:03:20;100092.97;;;24.72;47.24
43430;BME280;29028;43.234;27.896;2022-07-23T04:03:41;100100.91;;;24.84;46.95
43430;BME280;29028;43.234;27.896;2022-07-23T04:04:02;100090.44;;;24.81;46.81
43430;BME280;29028;43.234;27.896;2022-07-23T04:04:24;100094.53;;;24.88;46.98
43430;BME280;29028;43.234;27.896;2022-07-23T04:04:45;100094.81;;;24.87;46.63
43430;BME280;29028;43.234;27.896;2022-07-23T04:05:07;100090.69;;;24.84;46.59
43430;BME280;29028;43.234;27.896;2022-07-23T04:05:28;100099.50;;;24.86;46.78
43430;BME280;29028;43.234;27.896;2022-07-23T04:05:50;100089.88;;;24.84;46.41
43430;BME280;29028;43.234;27.896;2022-07-23T04:06:11;100095.63;;;24.87;46.68
43430;BME280;29028;43.234;27.896;2022-07-23T04:06:32;100091.19;;;24.91;46.66
43430;BME280;29028;43.234;27.896;2022-07-23T04:06:53;100098.03;;;24.99;46.58
43430;BME280;29028;43.234;27.896;2022-07-23T04:07:14;100092.75;;;25.02;46.61
43430;BME280;29028;43.234;27.896;2022-07-23T04:07:37;100090.25;;;25.11;46.65
43430;BME280;29028;43.234;27.896;2022-07-23T04:07:58;100086.06;;;25.13;46.23
43430;BME280;29028;43.234;27.896;2022-07-23T04:08:19;100094.28;;;25.18;46.07
43430;BME280;29028;43.234;27.896;2022-07-23T04:08:40;100096.00;;;25.14;46.00
43430;BME280;29028;43.234;27.896;2022-07-23T04:09:02;100090.50;;;25.14;46.21
43430;BME280;29028;43.234;27.896;2022-07-23T04:09:23;100078.38;;;25.10;45.82
43430;BME280;29028;43.234;27.896;2022-07-23T04:09:44;100085.56;;;25.06;46.07
43430;BME280;29028;43.234;27.896;2022-07-23T04:10:06;100090.50;;;25.14;46.23
43430;BME280;29028;43.234;27.896;2022-07-23T04:10:28;100082.97;;;25.20;46.32
43430;BME280;29028;43.234;27.896;2022-07-23T04:10:48;100093.72;;;25.26;45.94
43430;BME280;29028;43.234;27.896;2022-07-23T04:11:12;100085.97;;;25.28;45.83
43430;BME280;29028;43.234;27.896;2022-07-23T04:11:33;100093.97;;;25.30;45.94
43430;BME280;29028;43.234;27.896;2022-07-23T04:11:55;100088.97;;;25.32;45.69
43430;BME280;29028;43.234;27.896;2022-07-23T04:12:16;100082.94;;;25.30;45.48
43430;BME280;29028;43.234;27.896;2022-07-23T04:12:37;100089.69;;;25.47;45.22
43430;BME280;29028;43.234;27.896;2022-07-23T04:12:58;100083.09;;;25.43;45.38
43430;BME280;29028;43.234;27.896;2022-07-23T04:13:19;100079.78;;;25.46;45.25
43430;BME280;29028;43.234;27.896;2022-07-23T04:13:40;100092.91;;;25.54;45.17
43430;BME280;29028;43.234;27.896;2022-07-23T04:14:01;100093.63;;;25.65;44.93
43430;BME280;29028;43.234;27.896;2022-07-23T04:14:22;100090.59;;;25.66;44.81
43430;BME280;29028;43.234;27.896;2022-07-23T04:14:43;100095.00;;;25.67;44.85
43430;BME280;29028;43.234;27.896;2022-07-23T04:15:07;100090.13;;;25.59;44.75
43430;BME280;29028;43.234;27.896;2022-07-23T04:15:28;100089.19;;;25.69;44.96
43430;BME280;29028;43.234;27.896;2022-07-23T04:15:49;100083.25;;;25.57;45.03
43430;BME280;29028;43.234;27.896;2022-07-23T04:16:11;100087.38;;;25.59;45.07
43430;BME280;29028;43.234;27.896;2022-07-23T04:16:32;100089.34;;;25.54;44.91
43430;BME280;29028;43.234;27.896;2022-07-23T04:16:53;100095.34;;;25.61;45.20
43430;BME280;29028;43.234;27.896;2022-07-23T04:17:14;100087.38;;;25.59;45.20
43430;BME280;29028;43.234;27.896;2022-07-23T04:17:35;100090.97;;;25.60;45.08
43430;BME280;29028;43.234;27.896;2022-07-23T04:17:56;100092.34;;;25.57;45.28
43430;BME280;29028;43.234;27.896;2022-07-23T04:18:19;100091.28;;;25.53;44.43
43430;BME280;29028;43.234;27.896;2022-07-23T04:18:42;100093.16;;;25.58;44.87
43430;BME280;29028;43.234;27.896;2022-07-23T04:19:04;100092.28;;;25.62;44.82
43430;BME280;29028;43.234;27.896;2022-07-23T04:19:25;100095.63;;;25.59;44.58
43430;BME280;29028;43.234;27.896;2022-07-23T04:19:46;100088.19;;;25.60;45.01
43430;BME280;29028;43.234;27.896;2022-07-23T04:20:07;100101.44;;;25.58;44.44
43430;BME280;29028;43.234;27.896;2022-07-23T04:20:29;100091.25;;;25.58;44.20
43430;BME280;29028;43.234;27.896;2022-07-23T04:20:50;100089.00;;;25.60;44.25
43430;BME280;29028;43.234;27.896;2022-07-23T04:21:11;100091.72;;;25.65;44.36
43430;BME280;29028;43.234;27.896;2022-07-23T04:21:32;100093.53;;;25.75;44.45
43430;BME280;29028;43.234;27.896;2022-07-23T04:21:53;100096.31;;;25.75;44.63
43430;BME280;29028;43.234;27.896;2022-07-23T04:22:15;100094.91;;;25.77;44.79
43430;BME280;29028;43.234;27.896;2022-07-23T04:22:35;100098.22;;;25.79;44.46
43430;BME280;29028;43.234;27.896;2022-07-23T04:22:56;100084.66;;;25.83;44.51
43430;BME280;29028;43.234;27.896;2022-07-23T04:23:17;100095.13;;;25.81;44.13
43430;BME280;29028;43.234;27.896;2022-07-23T04:23:39;100102.59;;;25.80;44.46
43430;BME280;29028;43.234;27.896;2022-07-23T04:24:00;100101.72;;;25.85;44.73
43430;BME280;29028;43.234;27.896;2022-07-23T04:24:21;100093.22;;;25.81;44.61
43430;BME280;29028;43.234;27.896;2022-07-23T04:24:42;100094.28;;;25.85;44.37
43430;BME280;29028;43.234;27.896;2022-07-23T04:25:04;100089.78;;;25.94;44.54
43430;BME280;29028;43.234;27.896;2022-07-23T04:25:25;100092.25;;;25.96;44.59
43430;BME280;29028;43.234;27.896;2022-07-23T04:25:46;100086.50;;;25.92;44.42
43430;BME280;29028;43.234;27.896;2022-07-23T04:26:07;100094.22;;;25.95;44.24
43430;BME280;29028;43.234;27.896;2022-07-23T04:26:28;100098.19;;;26.08;44.21
43430;BME280;29028;43.234;27.896;2022-07-23T04:26:50;100087.47;;;26.06;44.24
43430;BME280;29028;43.234;27.896;2022-07-23T04:27:11;100092.38;;;26.09;44.15
43430;BME280;29028;43.234;27.896;2022-07-23T04:27:32;100092.72;;;26.03;44.36
43430;BME280;29028;43.234;27.896;2022-07-23T04:27:54;100083.47;;;25.94;44.75
43430;BME280;29028;43.234;27.896;2022-07-23T04:28:16;100102.66;;;26.04;44.35
43430;BME280;29028;43.234;27.896;2022-07-23T04:28:37;100090.56;;;26.00;44.70
43430;BME280;29028;43.234;27.896;2022-07-23T04:28:57;100103.81;;;25.98;44.74
43430;BME280;29028;43.234;27.896;2022-07-23T04:29:18;100097.47;;;25.97;45.05
43430;BME280;29028;43.234;27.896;2022-07-23T04:29:40;100100.72;;;26.04;44.45
43430;BME280;29028;43.234;27.896;2022-07-23T04:30:01;100099.25;;;26.12;44.53
43430;BME280;29028;43.234;27.896;2022-07-23T04:30:22;100088.25;;;26.07;44.27
43430;BME280;29028;43.234;27.896;2022-07-23T04:30:43;100097.94;;;26.04;44.71
43430;BME280;29028;43.234;27.896;2022-07-23T04:31:04;100100.19;;;26.02;44.53
43430;BME280;29028;43.234;27.896;2022-07-23T04:31:26;100096.53;;;26.07;44.21
43430;BME280;29028;43.234;27.896;2022-07-23T04:31:46;100101.00;;;26.03;44.22
43430;BME280;29028;43.234;27.896;2022-07-23T04:32:07;100093.56;;;26.03;44.10
43430;BME280;29028;43.234;27.896;2022-07-23T04:32:28;100097.59;;;26.11;43.94
43430;BME280;29028;43.234;27.896;2022-07-23T04:32:50;100093.78;;;26.07;44.25
43430;BME280;29028;43.234;27.896;2022-07-23T04:33:11;100101.53;;;26.05;44.17
43430;BME280;29028;43.234;27.896;2022-07-23T04:33:33;100097.66;;;26.06;44.01
43430;BME280;29028;43.234;27.896;2022-07-23T04:33:54;100092.16;;;26.06;43.77
43430;BME280;29028;43.234;27.896;2022-07-23T04:34:16;100093.56;;;26.03;43.90
43430;BME280;29028;43.234;27.896;2022-07-23T04:34:36;100092.50;;;25.99;43.99
43430;BME280;29028;43.234;27.896;2022-07-23T04:34:57;100088.59;;;26.00;44.12
43430;BME280;29028;43.234;27.896;2022-07-23T04:35:19;100096.38;;;25.98;44.04
43430;BME280;29028;43.234;27.896;2022-07-23T04:35:40;100095.84;;;25.96;43.98
43430;BME280;29028;43.234;27.896;2022-07-23T04:36:01;100084.25;;;25.94;43.87
43430;BME280;29028;43.234;27.896;2022-07-23T04:36:22;100092.25;;;25.96;44.21
43430;BME280;29028;43.234;27.896;2022-07-23T04:36:44;100095.28;;;25.94;44.18
43430;BME280;29028;43.234;27.896;2022-07-23T04:37:05;100099.41;;;25.97;44.13
43430;BME280;29028;43.234;27.896;2022-07-23T04:37:26;100088.38;;;25.97;44.08
43430;BME280;29028;43.234;27.896;2022-07-23T04:37:47;100086.63;;;26.06;44.01
43430;BME280;29028;43.234;27.896;2022-07-23T04:38:07;100088.78;;;26.09;44.01
43430;BME280;29028;43.234;27.896;2022-07-23T04:38:29;100094.63;;;26.07;44.48
43430;BME280;29028;43.234;27.896;2022-07-23T04:38:50;100094.56;;;26.12;44.05
43430;BME280;29028;43.234;27.896;2022-07-23T04:39:11;100094.75;;;26.21;44.33
43430;BME280;29028;43.234;27.896;2022-07-23T04:39:33;100091.84;;;26.07;43.70
43430;BME280;29028;43.234;27.896;2022-07-23T04:39:55;100099.03;;;26.08;44.15
43430;BME280;29028;43.234;27.896;2022-07-23T04:40:16;100094.31;;;26.09;44.23
43430;BME280;29028;43.234;27.896;2022-07-23T04:40:36;100090.75;;;26.08;44.32
43430;BME280;29028;43.234;27.896;2022-07-23T04:40:57;100090.97;;;26.12;44.38
43430;BME280;29028;43.234;27.896;2022-07-23T04:41:19;100090.06;;;26.16;44.48
43430;BME280;29028;43.234;27.896;2022-07-23T04:41:40;100098.34;;;26.16;44.59
43430;BME280;29028;43.234;27.896;2022-07-23T04:42:01;100094.50;;;26.17;44.21
43430;BME280;29028;43.234;27.896;2022-07-23T04:42:22;100095.03;;;26.19;44.35
43430;BME280;29028;43.234;27.896;2022-07-23T04:42:44;100099.72;;;26.19;44.34
43430;BME280;29028;43.234;27.896;2022-07-23T04:43:05;100100.53;;;26.19;44.21
43430;BME280;29028;43.234;27.896;2022-07-23T04:43:26;100095.31;;;26.18;44.39
43430;BME280;29028;43.234;27.896;2022-07-23T04:43:47;100090.34;;;26.20;44.53
43430;BME280;29028;43.234;27.896;2022-07-23T04:44:09;100096.19;;;26.13;44.62
43430;BME280;29028;43.234;27.896;2022-07-23T04:44:30;100101.66;;;26.18;44.64
43430;BME280;29028;43.234;27.896;2022-07-23T04:44:51;100096.66;;;26.20;44.58
43430;BME280;29028;43.234;27.896;2022-07-23T04:45:11;100099.06;;;26.27;44.19
43430;BME280;29028;43.234;27.896;2022-07-23T04:45:33;100094.97;;;26.24;44.69
43430;BME280;29028;43.234;27.896;2022-07-23T04:45:54;100096.31;;;26.27;44.21
43430;BME280;29028;43.234;27.896;2022-07-23T04:46:15;100101.56;;;26.28;44.27
43430;BME280;29028;43.234;27.896;2022-07-23T04:46:36;100089.91;;;26.31;44.02
43430;BME280;29028;43.234;27.896;2022-07-23T04:46:58;100095.66;;;26.35;44.30
43430;BME280;29028;43.234;27.896;2022-07-23T04:47:19;100097.06;;;26.32;44.83
43430;BME280;29028;43.234;27.896;2022-07-23T04:47:39;100100.38;;;26.34;44.29
43430;BME280;29028;43.234;27.896;2022-07-23T04:48:00;100097.00;;;26.37;44.33
43430;BME280;29028;43.234;27.896;2022-07-23T04:48:21;100098.97;;;26.37;44.65
43430;BME280;29028;43.234;27.896;2022-07-23T04:48:45;100090.13;;;26.35;44.26
43430;BME280;29028;43.234;27.896;2022-07-23T04:49:05;100094.00;;;26.34;44.34
43430;BME280;29028;43.234;27.896;2022-07-23T04:49:26;100093.50;;;26.32;44.36
43430;BME280;29028;43.234;27.896;2022-07-23T04:49:47;100097.28;;;26.36;44.60
43430;BME280;29028;43.234;27.896;2022-07-23T04:50:09;100099.25;;;26.35;44.67
43430;BME280;29028;43.234;27.896;2022-07-23T04:50:30;100091.75;;;26.36;44.33
43430;BME280;29028;43.234;27.896;2022-07-23T04:50:50;100105.22;;;26.42;44.38
43430;BME280;29028;43.234;27.896;2022-07-23T04:51:11;100108.81;;;26.43;44.44
43430;BME280;29028;43.234;27.896;2022-07-23T04:51:33;100101.56;;;26.47;43.99
43430;BME280;29028;43.234;27.896;2022-07-23T04:51:54;100104.94;;;26.44;44.29
43430;BME280;29028;43.234;27.896;2022-07-23T04:52:15;100095.31;;;26.41;44.20
43430;BME280;29028;43.234;27.896;2022-07-23T04:52:36;100092.25;;;26.43;44.13
43430;BME280;29028;43.234;27.896;2022-07-23T04:52:58;100099.34;;;26.49;44.29
43430;BME280;29028;43.234;27.896;2022-07-23T04:53:18;100099.06;;;26.50;44.40
43430;BME280;29028;43.234;27.896;2022-07-23T04:53:40;100099.06;;;26.50;44.25
43430;BME280;29028;43.234;27.896;2022-07-23T04:54:01;100094.88;;;26.53;44.15
43430;BME280;29028;43.234;27.896;2022-07-23T04:54:21;100094.81;;;26.58;44.19
43430;BME280;29028;43.234;27.896;2022-07-23T04:54:43;100099.78;;;26.61;44.04
43430;BME280;29028;43.234;27.896;2022-07-23T04:55:05;100096.72;;;26.62;44.15
43430;BME280;29028;43.234;27.896;2022-07-23T04:55:26;100097.00;;;26.61;43.95
43430;BME280;29028;43.234;27.896;2022-07-23T04:55:47;100090.50;;;26.70;43.93
43430;BME280;29028;43.234;27.896;2022-07-23T04:56:08;100102.91;;;26.73;44.01
43430;BME280;29028;43.234;27.896;2022-07-23T04:56:29;100091.13;;;26.67;43.91
43430;BME280;29028;43.234;27.896;2022-07-23T04:56:50;100096.66;;;26.67;44.14
43430;BME280;29028;43.234;27.896;2022-07-23T04:57:11;100098.13;;;26.60;44.40
43430;BME280;29028;43.234;27.896;2022-07-23T04:57:33;100095.88;;;26.62;44.11
43430;BME280;29028;43.234;27.896;2022-07-23T04:57:54;100096.66;;;26.67;44.41
43430;BME280;29028;43.234;27.896;2022-07-23T04:58:15;100093.53;;;26.50;44.62
43430;BME280;29028;43.234;27.896;2022-07-23T04:58:36;100103.22;;;26.48;44.98
43430;BME280;29028;43.234;27.896;2022-07-23T04:58:57;100099.53;;;26.57;44.51
43430;BME280;29028;43.234;27.896;2022-07-23T04:59:18;100106.41;;;26.60;44.41
43430;BME280;29028;43.234;27.896;2022-07-23T04:59:39;100102.81;;;26.59;44.47
43430;BME280;29028;43.234;27.896;2022-07-23T05:00:00;100095.38;;;26.60;44.52
43430;BME280;29028;43.234;27.896;2022-07-23T05:00:22;100106.22;;;26.51;44.64
43430;BME280;29028;43.234;27.896;2022-07-23T05:00:43;100099.41;;;26.44;44.91
43430;BME280;29028;43.234;27.896;2022-07-23T05:01:04;100099.94;;;26.46;44.79
43430;BME280;29028;43.234;27.896;2022-07-23T05:01:24;100098.91;;;26.42;44.95
43430;BME280;29028;43.234;27.896;2022-07-23T05:01:45;100104.16;;;26.38;45.45
43430;BME280;29028;43.234;27.896;2022-07-23T05:02:07;100102.47;;;26.42;45.21
43430;BME280;29028;43.234;27.896;2022-07-23T05:02:28;100103.59;;;26.41;45.08
43430;BME280;29028;43.234;27.896;2022-07-23T05:02:49;100096.44;;;26.40;45.08
43430;BME280;29028;43.234;27.896;2022-07-23T05:03:10;100104.72;;;26.40;45.13
43430;BME280;29028;43.234;27.896;2022-07-23T05:03:31;100104.72;;;26.40;45.22
43430;BME280;29028;43.234;27.896;2022-07-23T05:03:54;100105.00;;;26.39;45.38
43430;BME280;29028;43.234;27.896;2022-07-23T05:04:14;100095.88;;;26.38;45.44
43430;BME280;29028;43.234;27.896;2022-07-23T05:04:35;100092.38;;;26.33;45.86
43430;BME280;29028;43.234;27.896;2022-07-23T05:04:57;100092.94;;;26.30;46.08
43430;BME280;29028;43.234;27.896;2022-07-23T05:05:18;100097.78;;;26.43;45.58
43430;BME280;29028;43.234;27.896;2022-07-23T05:05:39;100082.97;;;26.34;45.27
43430;BME280;29028;43.234;27.896;2022-07-23T05:06:00;100088.59;;;26.47;45.07
43430;BME280;29028;43.234;27.896;2022-07-23T05:06:21;100098.00;;;26.46;45.38
43430;BME280;29028;43.234;27.896;2022-07-23T05:06:43;100102.53;;;26.37;46.09
43430;BME280;29028;43.234;27.896;2022-07-23T05:07:04;100103.31;;;26.43;45.63
43430;BME280;29028;43.234;27.896;2022-07-23T05:07:25;100104.53;;;26.32;45.87
43430;BME280;29028;43.234;27.896;2022-07-23T05:07:45;100095.06;;;26.38;46.02
43430;BME280;29028;43.234;27.896;2022-07-23T05:08:07;100102.41;;;26.47;45.94
43430;BME280;29028;43.234;27.896;2022-07-23T05:08:28;100088.38;;;26.44;45.76
43430;BME280;29028;43.234;27.896;2022-07-23T05:08:49;100102.63;;;26.51;45.58
43430;BME280;29028;43.234;27.896;2022-07-23T05:09:11;100106.22;;;26.51;45.69
43430;BME280;29028;43.234;27.896;2022-07-23T05:09:32;100097.91;;;26.56;45.33
43430;BME280;29028;43.234;27.896;2022-07-23T05:09:53;100096.94;;;26.42;45.94
43430;BME280;29028;43.234;27.896;2022-07-23T05:10:13;100105.28;;;26.37;46.70
43430;BME280;29028;43.234;27.896;2022-07-23T05:10:34;100102.19;;;26.44;45.21
43430;BME280;29028;43.234;27.896;2022-07-23T05:10:56;100100.00;;;26.41;45.48
43430;BME280;29028;43.234;27.896;2022-07-23T05:11:17;100103.97;;;26.53;45.58
43430;BME280;29028;43.234;27.896;2022-07-23T05:11:38;100102.81;;;26.59;45.45
43430;BME280;29028;43.234;27.896;2022-07-23T05:11:59;100109.41;;;26.63;45.16
43430;BME280;29028;43.234;27.896;2022-07-23T05:12:20;100101.69;;;26.60;45.07
43430;BME280;29028;43.234;27.896;2022-07-23T05:12:41;100106.63;;;26.63;45.31
43430;BME280;29028;43.234;27.896;2022-07-23T05:13:02;100107.75;;;26.62;45.51
43430;BME280;29028;43.234;27.896;2022-07-23T05:13:23;100092.06;;;26.58;45.50
43430;BME280;29028;43.234;27.896;2022-07-23T05:13:44;100108.56;;;26.63;46.10
43430;BME280;29028;43.234;27.896;2022-07-23T05:14:06;100104.66;;;26.69;45.23
43430;BME280;29028;43.234;27.896;2022-07-23T05:14:27;100095.59;;;26.63;46.06
43430;BME280;29028;43.234;27.896;2022-07-23T05:14:48;100105.75;;;26.68;45.66
43430;BME280;29028;43.234;27.896;2022-07-23T05:15:09;100107.91;;;26.71;46.08
43430;BME280;29028;43.234;27.896;2022-07-23T05:15:30;100108.66;;;26.76;45.14
43430;BME280;29028;43.234;27.896;2022-07-23T05:15:52;100098.16;;;26.78;44.88
43430;BME280;29028;43.234;27.896;2022-07-23T05:16:12;100098.28;;;26.68;45.70
43430;BME280;29028;43.234;27.896;2022-07-23T05:16:33;100104.81;;;26.77;45.80
43430;BME280;29028;43.234;27.896;2022-07-23T05:16:54;100103.13;;;26.76;46.56
43430;BME280;29028;43.234;27.896;2022-07-23T05:17:16;100112.63;;;26.70;46.41
43430;BME280;29028;43.234;27.896;2022-07-23T05:17:37;100100.44;;;26.71;46.71
43430;BME280;29028;43.234;27.896;2022-07-23T05:17:58;100106.34;;;26.65;46.89
43430;BME280;29028;43.234;27.896;2022-07-23T05:18:18;100104.03;;;26.72;45.95
43430;BME280;29028;43.234;27.896;2022-07-23T05:18:40;100110.00;;;26.79;45.90
43430;BME280;29028;43.234;27.896;2022-07-23T05:19:03;100100.69;;;26.75;45.82
43430;BME280;29028;43.234;27.896;2022-07-23T05:19:24;100108.16;;;26.74;46.31
43430;BME280;29028;43.234;27.896;2022-07-23T05:19:45;100097.09;;;26.74;45.94
43430;BME280;29028;43.234;27.896;2022-07-23T05:20:08;100109.22;;;26.78;45.67
43430;BME280;29028;43.234;27.896;2022-07-23T05:20:29;100106.88;;;26.85;46.01
43430;BME280;29028;43.234;27.896;2022-07-23T05:20:49;100101.22;;;26.95;46.56
43430;BME280;29028;43.234;27.896;2022-07-23T05:21:11;100109.72;;;26.99;46.31
43430;BME280;29028;43.234;27.896;2022-07-23T05:21:32;100097.53;;;27.00;46.03
43430;BME280;29028;43.234;27.896;2022-07-23T05:21:53;100111.28;;;27.05;45.83
43430;BME280;29028;43.234;27.896;2022-07-23T05:22:14;100111.28;;;27.05;45.54
43430;BME280;29028;43.234;27.896;2022-07-23T05:22:36;100115.25;;;26.99;46.24
43430;BME280;29028;43.234;27.896;2022-07-23T05:22:57;100110.31;;;26.96;45.92
43430;BME280;29028;43.234;27.896;2022-07-23T05:23:17;100102.00;;;26.96;45.78
43430;BME280;29028;43.234;27.896;2022-07-23T05:23:38;100109.22;;;26.97;45.32
43430;BME280;29028;43.234;27.896;2022-07-23T05:24:00;100110.22;;;27.01;45.12
43430;BME280;29028;43.234;27.896;2022-07-23T05:24:21;100111.78;;;27.07;45.47
43430;BME280;29028;43.234;27.896;2022-07-23T05:24:42;100104.97;;;27.04;46.15
43430;BME280;29028;43.234;27.896;2022-07-23T05:25:04;100104.97;;;27.04;45.61
43430;BME280;29028;43.234;27.896;2022-07-23T05:25:25;100106.81;;;27.09;45.07
43430;BME280;29028;43.234;27.896;2022-07-23T05:25:47;100109.50;;;27.14;45.13
43430;BME280;29028;43.234;27.896;2022-07-23T05:26:08;100103.13;;;27.13;46.05
43430;BME280;29028;43.234;27.896;2022-07-23T05:26:28;100099.84;;;27.11;45.02
43430;BME280;29028;43.234;27.896;2022-07-23T05:26:49;100105.31;;;27.16;45.27
43430;BME280;29028;43.234;27.896;2022-07-23T05:27:11;100094.25;;;27.16;45.60
43430;BME280;29028;43.234;27.896;2022-07-23T05:27:33;100111.59;;;27.22;45.25
43430;BME280;29028;43.234;27.896;2022-07-23T05:27:54;100106.06;;;27.22;45.59
43430;BME280;29028;43.234;27.896;2022-07-23T05:28:15;100108.03;;;27.21;46.10
43430;BME280;29028;43.234;27.896;2022-07-23T05:28:36;100113.03;;;27.19;46.24
43430;BME280;29028;43.234;27.896;2022-07-23T05:28:58;100113.69;;;27.11;47.05
43430;BME280;29028;43.234;27.896;2022-07-23T05:29:18;100109.47;;;27.19;46.41
43430;BME280;29028;43.234;27.896;2022-07-23T05:29:39;100101.66;;;27.21;46.45
43430;BME280;29028;43.234;27.896;2022-07-23T05:30:00;100105.78;;;27.23;45.65
43430;BME280;29028;43.234;27.896;2022-07-23T05:30:22;100089.56;;;27.17;45.98
43430;BME280;29028;43.234;27.896;2022-07-23T05:30:43;100099.03;;;27.29;46.16
43430;BME280;29028;43.234;27.896;2022-07-23T05:31:04;100102.84;;;27.33;46.20
43430;BME280;29028;43.234;27.896;2022-07-23T05:31:26;100101.50;;;27.31;46.04
43430;BME280;29028;43.234;27.896;2022-07-23T05:31:47;100100.69;;;27.30;46.31
43430;BME280;29028;43.234;27.896;2022-07-23T05:32:09;100105.91;;;27.32;46.22
43430;BME280;29028;43.234;27.896;2022-07-23T05:32:31;100083.88;;;27.27;45.76
43430;BME280;29028;43.234;27.896;2022-07-23T05:32:52;100096.69;;;27.36;45.63
43430;BME280;29028;43.234;27.896;2022-07-23T05:33:13;100103.50;;;27.44;46.10
43430;BME280;29028;43.234;27.896;2022-07-23T05:33:33;100110.06;;;27.48;46.27
43430;BME280;29028;43.234;27.896;2022-07-23T05:33:55;100096.16;;;27.53;46.22
43430;BME280;29028;43.234;27.896;2022-07-23T05:34:18;100102.53;;;27.53;45.67
43430;BME280;29028;43.234;27.896;2022-07-23T05:34:38;100112.25;;;27.51;45.87
43430;BME280;29028;43.234;27.896;2022-07-23T05:34:59;100101.69;;;27.53;45.81
43430;BME280;29028;43.234;27.896;2022-07-23T05:35:21;100102.72;;;27.57;46.28
43430;BME280;29028;43.234;27.896;2022-07-23T05:35:44;100101.81;;;27.61;46.34
43430;BME280;29028;43.234;27.896;2022-07-23T05:36:05;100109.41;;;27.69;46.25
43430;BME280;29028;43.234;27.896;2022-07-23T05:36:26;100101.31;;;27.59;46.60
43430;BME280;29028;43.234;27.896;2022-07-23T05:36:48;100099.34;;;27.60;46.76
43430;BME280;29028;43.234;27.896;2022-07-23T05:37:09;100106.31;;;27.57;46.75
43430;BME280;29028;43.234;27.896;2022-07-23T05:37:31;100103.84;;;27.56;46.54
43430;BME280;29028;43.234;27.896;2022-07-23T05:37:51;100105.63;;;27.65;46.73
43430;BME280;29028;43.234;27.896;2022-07-23T05:38:13;100109.09;;;27.71;46.40
43430;BME280;29028;43.234;27.896;2022-07-23T05:38:35;100106.34;;;27.71;46.30
43430;BME280;29028;43.234;27.896;2022-07-23T05:38:56;100105.34;;;27.67;46.58
43430;BME280;29028;43.234;27.896;2022-07-23T05:39:17;100103.16;;;27.64;46.78
43430;BME280;29028;43.234;27.896;2022-07-23T05:39:38;100092.81;;;27.69;46.42
43430;BME280;29028;43.234;27.896;2022-07-23T05:40:01;100105.97;;;27.77;46.42
43430;BME280;29028;43.234;27.896;2022-07-23T05:40:22;100101.00;;;27.74;46.92
43430;BME280;29028;43.234;27.896;2022-07-23T05:40:43;100098.34;;;27.69;46.75
43430;BME280;29028;43.234;27.896;2022-07-23T05:41:04;100097.81;;;27.67;46.46
43430;BME280;29028;43.234;27.896;2022-07-23T05:41:26;100101.94;;;27.70;46.30
43430;BME280;29028;43.234;27.896;2022-07-23T05:41:47;100103.78;;;27.74;46.36
43430;BME280;29028;43.234;27.896;2022-07-23T05:42:08;100098.03;;;27.71;46.76
43430;BME280;29028;43.234;27.896;2022-07-23T05:42:29;100107.09;;;27.76;46.92
43430;BME280;29028;43.234;27.896;2022-07-23T05:42:51;100103.19;;;27.77;46.65
43430;BME280;29028;43.234;27.896;2022-07-23T05:43:12;100101.56;;;27.76;46.75
43430;BME280;29028;43.234;27.896;2022-07-23T05:43:33;100101.25;;;27.78;47.08
43430;BME280;29028;43.234;27.896;2022-07-23T05:43:54;100108.88;;;27.86;46.61
43430;BME280;29028;43.234;27.896;2022-07-23T05:44:16;100096.97;;;27.85;46.55
43430;BME280;29028;43.234;27.896;2022-07-23T05:44:37;100100.28;;;27.87;46.55
43430;BME280;29028;43.234;27.896;2022-07-23T05:44:57;100102.63;;;27.94;46.65
43430;BME280;29028;43.234;27.896;2022-07-23T05:45:18;100110.41;;;27.92;46.21
43430;BME280;29028;43.234;27.896;2022-07-23T05:45:40;100104.50;;;27.98;46.59
43430;BME280;29028;43.234;27.896;2022-07-23T05:46:01;100104.06;;;28.05;46.39
43430;BME280;29028;43.234;27.896;2022-07-23T05:46:22;100095.66;;;27.96;46.75
43430;BME280;29028;43.234;27.896;2022-07-23T05:46:43;100105.53;;;28.02;46.48
43430;BME280;29028;43.234;27.896;2022-07-23T05:47:05;100105.00;;;28.00;46.64
43430;BME280;29028;43.234;27.896;2022-07-23T05:47:25;100104.19;;;28.00;46.09
43430;BME280;29028;43.234;27.896;2022-07-23T05:47:47;100095.88;;;28.00;46.73
43430;BME280;29028;43.234;27.896;2022-07-23T05:48:08;100100.59;;;27.99;46.77
43430;BME280;29028;43.234;27.896;2022-07-23T05:48:30;100092.38;;;27.94;46.34
43430;BME280;29028;43.234;27.896;2022-07-23T05:48:51;100109.91;;;27.90;46.96
43430;BME280;29028;43.234;27.896;2022-07-23T05:49:12;100101.06;;;27.88;47.64
43430;BME280;29028;43.234;27.896;2022-07-23T05:49:36;100105.28;;;27.85;47.40
43430;BME280;29028;43.234;27.896;2022-07-23T05:49:58;100101.16;;;27.83;47.50
43430;BME280;29028;43.234;27.896;2022-07-23T05:50:19;100102.75;;;27.89;47.22
43430;BME280;29028;43.234;27.896;2022-07-23T05:50:40;100102.97;;;27.74;47.51
43430;BME280;29028;43.234;27.896;2022-07-23T05:51:01;100100.59;;;27.67;47.54
43430;BME280;29028;43.234;27.896;2022-07-23T05:51:24;100106.59;;;27.56;47.62
43430;BME280;29028;43.234;27.896;2022-07-23T05:51:45;100099.56;;;27.63;47.82
43430;BME280;29028;43.234;27.896;2022-07-23T05:52:07;100105.34;;;27.80;47.59
43430;BME280;29028;43.234;27.896;2022-07-23T05:52:28;100103.53;;;27.89;47.17